Hauptseite
METAR-TAF:

METAR-TAF

Flughäfen :

Landsberg, Deutschland

Fliegerhorst Landsberg/Lech

Breite: 48-04N, Länge: 010-54E, Höhe: 623 m

Beobachtung

Neuester Wetterbericht von vor 52 Minuten, um 18:20 UTC
Wind 9 kt aus Süd/Südwest
Temperatur 8°C
Luftfeuchtigkeit 71%
Luftdruck 1016 hPa
Sichtweite 10 km oder mehr
Leicht bewölkt in der Höhe von 8000 ft
Durchbrochene Bewölkung in der Höhe von 20000 ft

METAR: ETSA 211820Z 21009KT 9999 FEW080 BKN200 08/03 Q1016 BLU+

Zeit: 20:12 (19:12 UTC)

Prognose

Neuester Wetterbericht von vor 1 Stunde und 52 Minuten, um 17:20 UTC
Gültige Prognose vom 21 um 18 UTC bis 22 um 06 UTC
Wind 10 kt aus Südwest
Sichtweite 10 km oder mehr
Leicht bewölkt in der Höhe von 2000 ft
Durchbrochene Bewölkung in der Höhe von 24000 ft

TAF: ETSA 211720Z 2118/2206 22010KT 9999 NSW FEW020 BKN240 BY ETGL

Wetterbeobachtungen und Prognosen von mehr als 4000 Flughäfen (METAR und TAF Bericht).

Die verfügbaren Stationen werden durch gelbe und rote Markierungen auf der Karte dargestellt.

Führen Sie die Maus auf sie, um den Namen der Station zu sehen.

Darauf klicken, um die Beobachtung von Wetterbeobachtungen und Prognosen zu sehen.

Um die Karte zu ändern : klicken Sie auf den grünen Tasten mit einem schwarzen Kreuz Zum Vergrößern, auf den grünen Button mit einem Gedankenstrich zu verkleinern, oder auf die grünen Pfeile für benachbarte Karten.


METAR-TAF: